Hlavní strana
METAR-TAF:

METAR-TAF

Letiště :

Decatur, Illinois, Spojené státy americké

zeměpisná šířka: 39-50-04N, zeměpisná délka: 088-51-56W, výška: 208 m

Aktuální stav počasí

Zpráva byla vytvořena před 22 minutami, v 01:54 UTC
Jihozápadní vítr 4 kt
Teplota 5°C
Vlhkost vzduchu 65%
Tlak 1018 hPa
Viditelnost: 16.1 km
Jasno

METAR: KDEC 220154Z 23004KT 10SM CLR 05/M01 A3005 RMK AO2 SLP179 T00501006

Čas: 21:16 (02:16 UTC)

Předpověď počasí

Zpráva byla vytvořena před 2 hodinami a 49 minutami, v 23:27 UTC
Předpověď platná od 22 v 00 UTC do 22 v 24 UTC
Západoseverozápadní vítr 7 kt
Viditelnost: 10 km
Jasno
Od 22 v 1200 UTC
Severoseverozápadní vítr 10 kt
Viditelnost: 10 km
Polojasno ve výšce 3500 ft
Od 22 v 1500 UTC
Severoseverozápadní vítr 12 kt s nárazy do 20 kt
Viditelnost: 10 km
Polojasno ve výšce 4000 ft

TAF: KDEC 212327Z 2200/2224 30007KT P6SM SKC FM221200 33010KT P6SM SCT035 FM221500 34012G20KT P6SM SCT040

Stav a předpovědi počasí z více než 4 000 letišť (zprávy METAR a TAF).

Červené a žluté tečky na mapě představují dostupné meteorologické stanice.

Když kurzor umístíte na tečku, zobrazí se název stanice.

Pak kliknutím zobrazíte stav a předpověď počasí.

Chcete-li změnit mapu, kliknutím na zelené tlačítko se znaménkem +mapu přiblížíte, kliknutím na zelené tlačítko se znaménkem – mapu oddálíte a kliknutím na zelené šipky přejdete na sousední mapy.


METAR-TAF: